South Strafford, Vermont
Current Conditions -  °F | °C
As of 8:53 PM on Thursday 20 Nov 2014 (Local Time) from KLEB Reporting Station
Scattered Clouds Scattered Clouds  
Wind Chill: 17°   Ceiling: Unl
Heat Index: 25°   Visibility: 10mi
Dew Point:   Wind: 7mph
Humidity: 51%   Direction: 190°S
Pressure: 29.85"   Gusts: NA
Location:  43.84°N, 72.37°W
Report Text: KLEB 210153Z 19006KT 10SM SCT080 M04/M13 A2985 RMK AO2 SLP119 T10391128
Loading
Personal Weather Stations






























Interactive Weather Map New forecast layout! Learn more

10-Day Weather Forecast

Advertisements
Track Severe Weather on mobile